Private Wetterstation Sandau
Wetterdaten: Woche 06.08.12 - 12.08.12 (KW32)
Datum Zeit Temp. A. Feuchte A. Luftdruck Regen Wind Richtung Taupunkt Windchill
06.08.2012 00:00 17,0 C 91 % 1009,8 hPa 0,0 l/m 2,9 km/h (1 Bft) O-NO 15,6 C 17,0 C
06.08.2012 01:00 16,7 C 92 % 1009,8 hPa 0,0 l/m 3,4 km/h (1 Bft) SO 15,4 C 16,7 C
06.08.2012 02:00 16,7 C 93 % 1009,8 hPa 0,0 l/m 3,9 km/h (1 Bft) SO 15,5 C 16,7 C
06.08.2012 03:00 16,6 C 93 % 1009,3 hPa 0,0 l/m 3,4 km/h (1 Bft) O 15,5 C 16,6 C
06.08.2012 04:00 16,5 C 93 % 1008,4 hPa 0,0 l/m 3,1 km/h (1 Bft) O-NO 15,3 C 16,5 C
06.08.2012 05:00 16,6 C 94 % 1007,5 hPa 0,5 l/m 3,2 km/h (1 Bft) SO 15,5 C 16,6 C
06.08.2012 06:00 16,9 C 94 % 1007,9 hPa 9,8 l/m 1,5 km/h (1 Bft) O-SO 15,9 C 16,9 C
06.08.2012 07:00 17,2 C 94 % 1007,0 hPa 0,0 l/m 1,4 km/h (1 Bft) NO 16,2 C 17,2 C
06.08.2012 08:00 17,8 C 93 % 1007,5 hPa 0,0 l/m 0,6 km/h (0 Bft) S-SO 16,7 C 17,8 C
06.08.2012 09:00 19,5 C 92 % 1007,8 hPa 0,0 l/m 10,3 km/h (2 Bft) SW 18,1 C 19,5 C
06.08.2012 10:00 20,2 C 85 % 1008,7 hPa 0,0 l/m 16,9 km/h (3 Bft) W-SW 17,7 C 20,2 C
06.08.2012 11:00 20,5 C 79 % 1009,8 hPa 0,0 l/m 11,1 km/h (2 Bft) W 16,7 C 20,5 C
06.08.2012 12:00 20,8 C 76 % 1010,4 hPa 0,0 l/m 11,1 km/h (2 Bft) W-SW 16,3 C 20,8 C
06.08.2012 13:00 22,0 C 68 % 1010,9 hPa 0,0 l/m 15,4 km/h (3 Bft) W 15,8 C 22,0 C
06.08.2012 14:00 23,9 C 59 % 1010,9 hPa 0,0 l/m 15,0 km/h (3 Bft) W-SW 15,5 C 23,9 C
06.08.2012 15:00 24,7 C 54 % 1010,7 hPa 0,0 l/m 14,7 km/h (3 Bft) W-SW 14,6 C 24,7 C
06.08.2012 16:00 24,5 C 50 % 1010,8 hPa 0,0 l/m 13,1 km/h (3 Bft) W-SW 13,5 C 24,5 C
06.08.2012 17:00 25,2 C 48 % 1010,5 hPa 0,0 l/m 8,4 km/h (2 Bft) W-SW 13,4 C 25,2 C
06.08.2012 18:00 24,1 C 50 % 1010,5 hPa 0,0 l/m 11,4 km/h (2 Bft) W-SW 13,0 C 24,1 C
06.08.2012 19:00 22,7 C 55 % 1010,6 hPa 0,0 l/m 5,4 km/h (1 Bft) SW 13,1 C 22,7 C
06.08.2012 20:00 20,9 C 62 % 1010,9 hPa 0,0 l/m 10,8 km/h (2 Bft) SW 13,4 C 20,9 C
06.08.2012 21:00 19,7 C 66 % 1011,4 hPa 0,0 l/m 5,7 km/h (1 Bft) SW 13,1 C 19,7 C
06.08.2012 22:00 19,0 C 69 % 1011,6 hPa 0,0 l/m 6,9 km/h (2 Bft) W-SW 13,1 C 19,0 C
06.08.2012 23:00 18,8 C 70 % 1012,5 hPa 0,0 l/m 8,2 km/h (2 Bft) W-SW 13,2 C 18,8 C
07.08.2012 00:00 17,7 C 74 % 1013,1 hPa 0,0 l/m 1,3 km/h (1 Bft) W-SW 12,9 C 17,7 C
07.08.2012 01:00 16,7 C 78 % 1013,4 hPa 0,0 l/m 4,4 km/h (1 Bft) S-SW 12,8 C 16,7 C
07.08.2012 02:00 16,3 C 79 % 1014,0 hPa 0,0 l/m 9,4 km/h (2 Bft) W-SW 12,6 C 16,3 C
07.08.2012 03:00 16,2 C 77 % 1014,4 hPa 0,0 l/m 10,6 km/h (2 Bft) W-SW 12,2 C 16,2 C
07.08.2012 04:00 15,5 C 80 % 1014,4 hPa 0,0 l/m 11,4 km/h (2 Bft) W-SW 12,0 C 15,5 C
07.08.2012 05:00 14,9 C 83 % 1014,7 hPa 0,0 l/m 7,0 km/h (2 Bft) SW 12,0 C 14,9 C
07.08.2012 06:00 15,4 C 82 % 1015,3 hPa 0,0 l/m 4,2 km/h (1 Bft) SW 12,3 C 15,4 C
07.08.2012 07:00 17,7 C 76 % 1015,8 hPa 0,0 l/m 9,5 km/h (2 Bft) W-SW 13,3 C 17,7 C
07.08.2012 08:00 18,3 C 72 % 1016,0 hPa 0,0 l/m 18,2 km/h (3 Bft) W-SW 13,2 C 18,3 C
07.08.2012 09:00 19,1 C 68 % 1016,1 hPa 0,0 l/m 15,5 km/h (3 Bft) W-SW 13,0 C 19,1 C
07.08.2012 10:00 20,1 C 62 % 1016,5 hPa 0,0 l/m 15,7 km/h (3 Bft) W-SW 12,5 C 20,1 C
07.08.2012 11:00 19,8 C 61 % 1017,2 hPa 0,0 l/m 17,8 km/h (3 Bft) W-SW 12,1 C 19,8 C
07.08.2012 12:00 21,2 C 56 % 1017,4 hPa 0,0 l/m 20,4 km/h (4 Bft) W 12,0 C 21,2 C
07.08.2012 13:00 20,9 C 56 % 1017,6 hPa 0,0 l/m 16,1 km/h (3 Bft) W-SW 11,7 C 20,9 C
07.08.2012 14:00 22,2 C 53 % 1017,7 hPa 0,0 l/m 16,8 km/h (3 Bft) W-SW 12,3 C 22,2 C
07.08.2012 15:00 20,7 C 60 % 1018,1 hPa 0,0 l/m 14,0 km/h (3 Bft) W-SW 12,5 C 20,7 C
07.08.2012 16:00 18,9 C 69 % 1018,4 hPa 0,0 l/m 11,9 km/h (2 Bft) W-NW 13,0 C 18,9 C
07.08.2012 17:00 19,3 C 69 % 1018,5 hPa 0,0 l/m 8,7 km/h (2 Bft) W-SW 13,5 C 19,3 C
07.08.2012 18:00 19,1 C 69 % 1018,7 hPa 0,0 l/m 8,9 km/h (2 Bft) W-SW 13,4 C 19,1 C
07.08.2012 19:00 17,8 C 71 % 1019,0 hPa 0,0 l/m 3,5 km/h (1 Bft) W 12,5 C 17,8 C
07.08.2012 20:00 17,7 C 72 % 1019,3 hPa 0,0 l/m 8,6 km/h (2 Bft) W 12,6 C 17,7 C
07.08.2012 21:00 16,9 C 73 % 1019,8 hPa 0,0 l/m 12,2 km/h (2 Bft) W-SW 12,0 C 16,9 C
07.08.2012 22:00 16,1 C 77 % 1020,0 hPa 0,0 l/m 8,6 km/h (2 Bft) W-SW 12,1 C 16,1 C
07.08.2012 23:00 15,9 C 79 % 1020,0 hPa 0,0 l/m 8,5 km/h (2 Bft) W-SW 12,3 C 15,9 C
08.08.2012 00:00 15,1 C 81 % 1020,1 hPa 0,0 l/m 12,1 km/h (2 Bft) W-SW 11,8 C 15,1 C
08.08.2012 01:00 14,5 C 82 % 1020,3 hPa 0,0 l/m 10,6 km/h (2 Bft) W-SW 11,4 C 14,5 C
08.08.2012 02:00 14,4 C 83 % 1020,3 hPa 0,0 l/m 10,6 km/h (2 Bft) W-SW 11,5 C 14,4 C
08.08.2012 03:00 14,3 C 83 % 1020,4 hPa 0,0 l/m 11,1 km/h (2 Bft) W 11,5 C 14,3 C
08.08.2012 04:00 14,4 C 83 % 1020,5 hPa 0,0 l/m 11,0 km/h (2 Bft) W-SW 11,6 C 14,4 C
08.08.2012 05:00 14,7 C 83 % 1020,8 hPa 0,0 l/m 7,2 km/h (2 Bft) W-SW 11,8 C 14,7 C
08.08.2012 06:00 14,9 C 82 % 1021,0 hPa 0,0 l/m 8,0 km/h (2 Bft) W 11,9 C 14,9 C
08.08.2012 07:00 14,9 C 82 % 1021,4 hPa 0,0 l/m 9,2 km/h (2 Bft) W-SW 11,8 C 14,9 C
08.08.2012 08:00 15,6 C 80 % 1022,1 hPa 0,0 l/m 10,5 km/h (2 Bft) W 12,2 C 15,6 C
08.08.2012 09:00 16,2 C 78 % 1022,3 hPa 0,0 l/m 12,3 km/h (3 Bft) W-SW 12,5 C 16,2 C
08.08.2012 10:00 17,1 C 76 % 1022,7 hPa 0,0 l/m 8,6 km/h (2 Bft) W 12,8 C 17,1 C
08.08.2012 11:00 19,4 C 69 % 1022,9 hPa 0,0 l/m 11,8 km/h (2 Bft) W 13,5 C 19,4 C
08.08.2012 12:00 20,4 C 63 % 1023,0 hPa 0,0 l/m 15,7 km/h (3 Bft) W-SW 13,1 C 20,4 C
08.08.2012 13:00 21,5 C 57 % 1022,6 hPa 0,0 l/m 11,8 km/h (2 Bft) W 12,7 C 21,5 C
08.08.2012 14:00 22,3 C 52 % 1022,1 hPa 0,0 l/m 12,5 km/h (3 Bft) SW 11,8 C 22,3 C
08.08.2012 15:00 23,4 C 48 % 1021,8 hPa 0,0 l/m 10,3 km/h (2 Bft) W-NW 11,8 C 23,4 C
08.08.2012 16:00 24,0 C 45 % 1021,4 hPa 0,0 l/m 11,9 km/h (2 Bft) NW 11,4 C 24,0 C
08.08.2012 17:00 20,6 C 57 % 1021,5 hPa 0,0 l/m 9,9 km/h (2 Bft) N-NO 11,7 C 20,6 C
08.08.2012 18:00 18,3 C 67 % 1021,9 hPa 0,0 l/m 7,6 km/h (2 Bft) N 12,0 C 18,3 C
08.08.2012 19:00 18,7 C 68 % 1022,0 hPa 0,0 l/m 8,5 km/h (2 Bft) W-SW 12,7 C 18,7 C
08.08.2012 20:00 17,3 C 74 % 1022,1 hPa 0,0 l/m 5,1 km/h (1 Bft) W-SW 12,6 C 17,3 C
08.08.2012 21:00 16,8 C 77 % 1022,3 hPa 0,0 l/m 4,7 km/h (1 Bft) W 12,7 C 16,8 C
08.08.2012 22:00 16,7 C 80 % 1022,3 hPa 0,0 l/m 4,1 km/h (1 Bft) W 13,2 C 16,7 C
08.08.2012 23:00 16,0 C 81 % 1022,8 hPa 0,0 l/m 4,1 km/h (1 Bft) W 12,7 C 16,0 C
09.08.2012 00:00 15,0 C 83 % 1023,2 hPa 0,0 l/m 3,1 km/h (1 Bft) W-NW 12,2 C 15,0 C
09.08.2012 01:00 14,5 C 85 % 1023,1 hPa 0,0 l/m 1,7 km/h (1 Bft) W-NW 12,0 C 14,5 C
09.08.2012 02:00 14,3 C 86 % 1022,9 hPa 0,0 l/m 1,5 km/h (1 Bft) W-NW 12,0 C 14,3 C
09.08.2012 03:00 14,2 C 86 % 1023,1 hPa 0,0 l/m 2,2 km/h (1 Bft) W 11,9 C 14,2 C
09.08.2012 04:00 13,8 C 88 % 1023,2 hPa 0,0 l/m 2,1 km/h (1 Bft) NW 11,8 C 13,8 C
09.08.2012 05:00 13,5 C 88 % 1023,3 hPa 0,0 l/m 0,8 km/h (0 Bft) NW 11,6 C 13,5 C
09.08.2012 06:00 13,9 C 88 % 1023,5 hPa 0,0 l/m 1,4 km/h (1 Bft) NW 12,0 C 13,9 C
09.08.2012 07:00 14,9 C 87 % 1023,7 hPa 0,0 l/m 2,3 km/h (1 Bft) W-NW 12,7 C 14,9 C
09.08.2012 08:00 15,0 C 86 % 1024,0 hPa 0,0 l/m 2,0 km/h (1 Bft) W-SW 12,7 C 15,0 C
09.08.2012 09:00 15,4 C 85 % 1024,4 hPa 0,0 l/m 3,2 km/h (1 Bft) W-NW 12,8 C 15,4 C
09.08.2012 10:00 15,8 C 83 % 1024,8 hPa 0,0 l/m 3,1 km/h (1 Bft) W-SW 12,9 C 15,8 C
09.08.2012 11:00 18,1 C 73 % 1024,7 hPa 0,0 l/m 4,8 km/h (1 Bft) W-NW 13,1 C 18,1 C
09.08.2012 12:00 20,2 C 61 % 1024,7 hPa 0,0 l/m 7,4 km/h (2 Bft) W 12,4 C 20,2 C
09.08.2012 13:00 20,5 C 57 % 1024,3 hPa 0,0 l/m 8,3 km/h (2 Bft) N-NO 11,7 C 20,5 C
09.08.2012 14:00 19,4 C 60 % 1024,4 hPa 0,0 l/m 6,5 km/h (2 Bft) N-NW 11,4 C 19,4 C
09.08.2012 15:00 18,9 C 59 % 1024,4 hPa 0,0 l/m 6,9 km/h (2 Bft) N 10,8 C 18,9 C
09.08.2012 16:00 20,6 C 53 % 1024,2 hPa 0,0 l/m 9,5 km/h (2 Bft) N 10,5 C 20,6 C
09.08.2012 17:00 20,2 C 54 % 1024,1 hPa 0,0 l/m 6,1 km/h (2 Bft) N-NW 10,6 C 20,2 C
09.08.2012 18:00 18,9 C 59 % 1024,1 hPa 0,0 l/m 7,7 km/h (2 Bft) N-NW 10,8 C 18,9 C
09.08.2012 19:00 18,8 C 61 % 1024,2 hPa 0,0 l/m 3,4 km/h (1 Bft) N-NO 11,0 C 18,8 C
09.08.2012 20:00 17,5 C 65 % 1024,4 hPa 0,0 l/m 1,8 km/h (1 Bft) N-NO 10,8 C 17,5 C
09.08.2012 21:00 16,3 C 69 % 1024,6 hPa 0,0 l/m 1,2 km/h (1 Bft) W-NW 10,6 C 16,3 C
09.08.2012 22:00 15,6 C 73 % 1025,0 hPa 0,0 l/m 2,7 km/h (1 Bft) NW 10,7 C 15,6 C
09.08.2012 23:00 15,0 C 75 % 1025,3 hPa 0,0 l/m 3,4 km/h (1 Bft) W-NW 10,6 C 15,0 C
10.08.2012 00:00 14,0 C 78 % 1025,4 hPa 0,0 l/m 1,9 km/h (1 Bft) W-NW 10,2 C 14,0 C
10.08.2012 01:00 13,1 C 81 % 1025,4 hPa 0,0 l/m 2,6 km/h (1 Bft) W-NW 9,9 C 13,1 C
10.08.2012 02:00 12,5 C 83 % 1025,5 hPa 0,0 l/m 3,8 km/h (1 Bft) W-NW 9,7 C 12,5 C
10.08.2012 03:00 12,0 C 84 % 1025,2 hPa 0,0 l/m 2,9 km/h (1 Bft) W-NW 9,5 C 12,0 C
10.08.2012 04:00 11,3 C 86 % 1025,3 hPa 0,0 l/m 1,9 km/h (1 Bft) W-NW 9,1 C 11,3 C
10.08.2012 05:00 11,0 C 87 % 1025,4 hPa 0,0 l/m 3,5 km/h (1 Bft) NW 8,9 C 11,0 C
10.08.2012 06:00 11,2 C 88 % 1025,6 hPa 0,0 l/m 4,2 km/h (1 Bft) W-NW 9,4 C 11,2 C
10.08.2012 07:00 12,0 C 88 % 1025,9 hPa 0,0 l/m 3,0 km/h (1 Bft) W-NW 10,0 C 12,0 C
10.08.2012 08:00 14,3 C 85 % 1026,0 hPa 0,0 l/m 5,0 km/h (1 Bft) NW 11,7 C 14,3 C
10.08.2012 09:00 17,0 C 71 % 1026,1 hPa 0,0 l/m 6,7 km/h (2 Bft) W-NW 11,7 C 17,0 C
10.08.2012 10:00 18,3 C 63 % 1026,0 hPa 0,0 l/m 7,0 km/h (2 Bft) W-NW 11,1 C 18,3 C
10.08.2012 11:00 18,0 C 58 % 1025,9 hPa 0,0 l/m 7,2 km/h (2 Bft) N-NO 9,8 C 18,0 C
10.08.2012 12:00 18,6 C 56 % 1025,7 hPa 0,0 l/m 7,1 km/h (2 Bft) N-NO 9,6 C 18,6 C
10.08.2012 13:00 19,7 C 51 % 1025,4 hPa 0,0 l/m 6,8 km/h (2 Bft) N 9,1 C 19,7 C
10.08.2012 14:00 19,2 C 54 % 1025,2 hPa 0,0 l/m 7,3 km/h (2 Bft) N-NW 9,6 C 19,2 C
10.08.2012 15:00 19,9 C 54 % 1025,0 hPa 0,0 l/m 10,2 km/h (2 Bft) W-NW 10,3 C 19,9 C
10.08.2012 16:00 20,5 C 54 % 1024,5 hPa 0,0 l/m 7,2 km/h (2 Bft) W-NW 10,9 C 20,5 C
10.08.2012 17:00 18,6 C 59 % 1024,4 hPa 0,0 l/m 6,3 km/h (2 Bft) N 10,5 C 18,6 C
10.08.2012 18:00 16,8 C 70 % 1024,5 hPa 0,0 l/m 6,8 km/h (2 Bft) W-NW 11,4 C 16,8 C
10.08.2012 19:00 15,7 C 80 % 1024,1 hPa 0,0 l/m 1,2 km/h (1 Bft) W-SW 12,2 C 15,7 C
10.08.2012 20:00 15,7 C 80 % 1023,9 hPa 0,0 l/m 4,8 km/h (1 Bft) W 12,2 C 15,7 C
10.08.2012 21:00 15,4 C 81 % 1023,9 hPa 0,0 l/m 3,9 km/h (1 Bft) W 12,1 C 15,4 C
10.08.2012 22:00 15,1 C 83 % 1023,7 hPa 0,0 l/m 5,8 km/h (2 Bft) W-NW 12,2 C 15,1 C
10.08.2012 23:00 14,9 C 83 % 1023,7 hPa 0,0 l/m 6,4 km/h (2 Bft) W-NW 12,0 C 14,9 C
11.08.2012 00:00 14,8 C 84 % 1023,6 hPa 0,0 l/m 3,7 km/h (1 Bft) NW 12,1 C 14,8 C
11.08.2012 01:00 14,5 C 82 % 1023,7 hPa 0,0 l/m 4,4 km/h (1 Bft) NW 11,6 C 14,5 C
11.08.2012 02:00 13,8 C 82 % 1023,8 hPa 0,0 l/m 2,8 km/h (1 Bft) N 10,8 C 13,8 C
11.08.2012 03:00 13,0 C 84 % 1023,6 hPa 0,0 l/m 2,9 km/h (1 Bft) NW 10,5 C 13,0 C
11.08.2012 04:00 13,1 C 85 % 1023,6 hPa 0,0 l/m 2,2 km/h (1 Bft) NW 10,6 C 13,1 C
11.08.2012 05:00 12,2 C 85 % 1023,9 hPa 0,0 l/m 1,2 km/h (1 Bft) W-NW 9,8 C 12,2 C
11.08.2012 06:00 12,0 C 87 % 1024,3 hPa 0,0 l/m 1,0 km/h (0 Bft) N-NW 9,9 C 12,0 C
11.08.2012 07:00 14,8 C 81 % 1024,4 hPa 0,0 l/m 3,1 km/h (1 Bft) N 11,6 C 14,8 C
11.08.2012 08:00 16,1 C 78 % 1024,6 hPa 0,0 l/m 3,3 km/h (1 Bft) O 12,3 C 16,1 C
11.08.2012 09:00 17,3 C 72 % 1024,8 hPa 0,0 l/m 6,0 km/h (2 Bft) O-NO 12,2 C 17,3 C
11.08.2012 10:00 18,5 C 60 % 1025,0 hPa 0,0 l/m 6,7 km/h (2 Bft) NO 10,5 C 18,5 C
11.08.2012 11:00 19,4 C 55 % 1025,0 hPa 0,0 l/m 3,7 km/h (1 Bft) NO 10,1 C 19,4 C
11.08.2012 12:00 21,1 C 50 % 1024,8 hPa 0,0 l/m 5,3 km/h (1 Bft) O-NO 10,4 C 21,1 C
11.08.2012 13:00 21,9 C 47 % 1024,5 hPa 0,0 l/m 5,5 km/h (1 Bft) O-NO 9,9 C 21,9 C
11.08.2012 14:00 22,6 C 44 % 1024,3 hPa 0,0 l/m 5,2 km/h (1 Bft) O-NO 9,6 C 22,6 C
11.08.2012 15:00 22,4 C 43 % 1024,1 hPa 0,0 l/m 5,1 km/h (1 Bft) NO 9,1 C 22,4 C
11.08.2012 16:00 22,3 C 42 % 1023,7 hPa 0,0 l/m 3,5 km/h (1 Bft) O-NO 8,8 C 22,3 C
11.08.2012 17:00 22,3 C 43 % 1023,2 hPa 0,0 l/m 3,4 km/h (1 Bft) N-NO 9,2 C 22,3 C
11.08.2012 18:00 22,4 C 44 % 1022,8 hPa 0,0 l/m 4,4 km/h (1 Bft) O-NO 9,5 C 22,4 C
11.08.2012 19:00 19,8 C 52 % 1022,6 hPa 0,0 l/m 2,4 km/h (1 Bft) NO 9,7 C 19,8 C
11.08.2012 20:00 19,0 C 56 % 1022,6 hPa 0,0 l/m 1,2 km/h (1 Bft) O-NO 10,0 C 19,0 C
11.08.2012 21:00 17,8 C 59 % 1022,9 hPa 0,0 l/m 2,7 km/h (1 Bft) O-NO 9,6 C 17,8 C
11.08.2012 22:00 16,4 C 64 % 1023,0 hPa 0,0 l/m 2,3 km/h (1 Bft) O-NO 9,6 C 16,4 C
11.08.2012 23:00 15,1 C 69 % 1023,2 hPa 0,0 l/m 2,6 km/h (1 Bft) O-NO 9,5 C 15,1 C
12.08.2012 00:00 13,9 C 73 % 1023,1 hPa 0,0 l/m 3,3 km/h (1 Bft) O-NO 9,1 C 13,9 C
12.08.2012 01:00 12,9 C 76 % 1022,9 hPa 0,0 l/m 3,4 km/h (1 Bft) O-NO 8,8 C 12,9 C
12.08.2012 02:00 12,4 C 80 % 1022,5 hPa 0,0 l/m 4,1 km/h (1 Bft) O-NO 9,0 C 12,4 C
12.08.2012 03:00 11,8 C 82 % 1022,3 hPa 0,0 l/m 1,4 km/h (1 Bft) O 8,8 C 11,8 C
12.08.2012 04:00 11,3 C 85 % 1022,0 hPa 0,0 l/m 2,2 km/h (1 Bft) O 8,9 C 11,3 C
12.08.2012 05:00 10,9 C 86 % 1022,0 hPa 0,0 l/m 1,8 km/h (1 Bft) O-SO 8,7 C 10,9 C
12.08.2012 06:00 11,0 C 87 % 1021,9 hPa 0,0 l/m 3,8 km/h (1 Bft) O-SO 8,9 C 11,0 C
12.08.2012 07:00 13,6 C 80 % 1021,9 hPa 0,0 l/m 6,4 km/h (2 Bft) O-NO 10,2 C 13,6 C
12.08.2012 08:00 14,8 C 76 % 1022,1 hPa 0,0 l/m 8,8 km/h (2 Bft) SO 10,7 C 14,8 C
12.08.2012 09:00 16,7 C 70 % 1022,2 hPa 0,0 l/m 7,4 km/h (2 Bft) O-NO 11,1 C 16,7 C
12.08.2012 10:00 18,8 C 58 % 1022,1 hPa 0,0 l/m 9,3 km/h (2 Bft) O 10,4 C 18,8 C
12.08.2012 11:00 19,9 C 53 % 1022,0 hPa 0,0 l/m 10,5 km/h (2 Bft) O-SO 10,1 C 19,9 C
12.08.2012 12:00 21,0 C 46 % 1021,6 hPa 0,0 l/m 11,2 km/h (2 Bft) SO 9,0 C 21,0 C
12.08.2012 13:00 22,3 C 41 % 1021,3 hPa 0,0 l/m 6,7 km/h (2 Bft) SO 8,4 C 22,3 C
12.08.2012 14:00 22,6 C 39 % 1020,9 hPa 0,0 l/m 8,8 km/h (2 Bft) SO 8,0 C 22,6 C
12.08.2012 15:00 21,8 C 42 % 1020,8 hPa 0,0 l/m 10,1 km/h (2 Bft) O-SO 8,2 C 21,8 C
12.08.2012 16:00 21,9 C 41 % 1020,5 hPa 0,0 l/m 9,0 km/h (2 Bft) O 8,1 C 21,9 C
12.08.2012 17:00 22,5 C 40 % 1020,1 hPa 0,0 l/m 5,4 km/h (1 Bft) O-SO 8,2 C 22,5 C
12.08.2012 18:00 21,9 C 40 % 1019,8 hPa 0,0 l/m 6,9 km/h (2 Bft) O-NO 7,7 C 21,9 C
12.08.2012 19:00 21,3 C 42 % 1019,6 hPa 0,0 l/m 5,2 km/h (1 Bft) O 7,9 C 21,3 C
12.08.2012 20:00 19,2 C 47 % 1019,7 hPa 0,0 l/m 1,2 km/h (1 Bft) O 7,7 C 19,2 C
12.08.2012 21:00 17,2 C 54 % 1019,7 hPa 0,0 l/m 0,7 km/h (0 Bft) O 7,7 C 17,2 C
12.08.2012 22:00 15,7 C 60 % 1019,9 hPa 0,0 l/m 0,6 km/h (0 Bft) NO 8,0 C 15,7 C
12.08.2012 23:00 14,5 C 67 % 1020,3 hPa 0,0 l/m 2,5 km/h (1 Bft) O 8,4 C 14,5 C
Min-Datum _ 12.08.12 12.08.12 06.08.12 - 06.08.12 - 12.08.12 12.08.12
_ Min-Zeit 06:11 14:41 07:16 - 00:41 - 18:01 06:11
Minimum _ 10,6 C 38 % 1006,7 hPa - 0,0 km/h (0 Bft) - 7,3 C 10,6 C
Max-Datum _ 06.08.12 06.08.12 10.08.12 06.08.12 07.08.12 - 06.08.12 06.08.12
_ Max-Zeit 17:36 05:31 09:21 06:06 14:36 - 09:31 17:36
Maximum _ 25,6 C 94 % 1026,3 hPa 9,8 l/m 41,0 km/h
W-SW (6 Bft)
- 18,5 C 25,6 C
Durchschnitt _ 17,5 C 70 % 1020,4 hPa #10,4 l/m 6,6 km/h (2 Bft) W-SW 11,6 C 17,5 C
(c) by David Heller